LSZS/SMV METAR and TAF weather

Enter ICAO airport designator
Station Type Date Time Source
LSZS METAR 2021/05/14 03:50 UTC NOAA

LSZS 140350Z AUTO VRB02KT 9999 NCD M01/M04 Q1008


Station Type Date Time Source
LSZS Decoded METAR 2021/05/14 03:50 UTC NOAA

Station name not available
May 13, 2021 - 11:50 PM EDT / 2021.05.14 0350 UTC
Wind: Variable at 2 MPH (2 KT):0
Visibility: greater than 7 mile(s):0
Temperature: 30 F (-1 C)
Dew Point: 24 F (-4 C)
Relative Humidity: 80%
Pressure (altimeter): 29.77 in. Hg (1008 hPa)
ob: LSZS 140350Z AUTO VRB02KT 9999 NCD M01/M04 Q1008
cycle: 4

Station Type Date Time Source
LSZS TAF 2014/12/22 20:03 UTC NOAA

TAF
AMD LSZS 222054Z 2220/2224 CNL

Example: see airport list